Time;durP1;ratioP1;P1;durP2;ratioP2;P2;SDS_P1;SDS_P2;PMS_P1;PMS_P2;Temp;Humidity;BMP_temperature;BMP_pressure;BME280_temperature;BME280_humidity;BME280_pressure;Samples;Min_cycle;Max_cycle;Signal;HPM_P1;HPM_P2
2022/09/18 00:00:39;;;;;;;;;;;;;;;8.31;94.07;96588.94;5076569;28;20050;-78
2022/09/18 00:03:05;;;;;;;;;;;;;;;8.32;94.01;96587.97;5076850;28;19952;-78
2022/09/18 00:05:31;;;;;;;;;;;;;;;8.31;95.09;96591.56;5076647;28;19954;-78
2022/09/18 00:07:57;;;;;;;;;;;;;;;8.30;94.79;96589.97;5076422;28;19956;-78
2022/09/18 00:10:23;;;;;;;;;;;;;;;8.30;94.57;96589.97;5076471;28;19972;-78
2022/09/18 00:12:49;;;;;;;;;;;;;;;8.30;95.17;96591.78;5076681;28;20052;-78
2022/09/18 00:15:15;;;;;;;;;;;;;;;8.31;95.49;96596.00;5058899;28;20042;-78
2022/09/18 00:17:41;;;;;;;;;;;;;;;8.32;95.55;96595.00;5076705;28;20027;-78
2022/09/18 00:20:07;;;;;;;;;;;;;;;8.33;95.10;96594.00;5058455;28;19968;-78
2022/09/18 00:22:33;;;;;;;;;;;;;;;8.33;95.30;96600.00;5076140;28;20319;-78
2022/09/18 00:24:59;;;;;;;;;;;;;;;8.34;94.99;96596.41;5076400;28;19947;-78
2022/09/18 00:27:24;;;;;;;;;;;;;;;8.36;95.38;96593.59;5076322;28;20370;-78
2022/09/18 00:29:50;;;;;;;;;;;;;;;8.37;95.83;96594.41;5075951;28;19971;-78
2022/09/18 00:32:16;;;;;;;;;;;;;;;8.38;95.89;96590.78;5076442;28;19957;-78
2022/09/18 00:34:42;;;;;;;;;;;;;;;8.38;95.68;96593.38;5076111;28;20405;-79
2022/09/18 00:37:08;;;;;;;;;;;;;;;8.39;96.10;96595.81;5058140;28;19985;-79
2022/09/18 00:39:34;;;;;;;;;;;;;;;8.39;95.99;96595.00;5075856;28;19994;-78
2022/09/18 00:42:00;;;;;;;;;;;;;;;8.39;95.73;96593.19;5076247;28;20395;-78
2022/09/18 00:44:35;;;;;;;;;;;;;;;8.40;95.96;96594.00;5076417;28;19972;-78
2022/09/18 00:47:10;;;;;;;;;;;;;;;8.40;95.81;96584.38;5076108;28;19963;-78
2022/09/18 00:49:44;;;;;;;;;;;;;;;8.41;95.90;96593.81;5075739;28;19972;-78
2022/09/18 00:52:12;;;;;;;;;;;;;;;8.39;96.20;96582.75;5062055;28;19960;-78
2022/09/18 00:54:40;;;;;;;;;;;;;;;8.36;97.10;96587.56;5075820;28;19949;-78
2022/09/18 00:57:14;;;;;;;;;;;;;;;8.36;97.05;96587.56;5074888;28;19948;-78
2022/09/18 00:59:42;;;;;;;;;;;;;;;8.36;97.37;96582.31;5075567;28;19950;-78
2022/09/18 01:02:07;;;;;;;;;;;;;;;8.38;96.88;96588.16;5076110;28;19961;-78
2022/09/18 01:04:33;;;;;;;;;;;;;;;8.41;96.71;96590.41;5075659;28;20369;-78
2022/09/18 01:07:02;;;;;;;;;;;;;;;8.40;97.35;96579.13;5075959;28;19954;-78
2022/09/18 01:09:28;;;;;;;;;;;;;;;8.42;97.17;96578.94;5075176;28;19959;-78
2022/09/18 01:11:54;;;;;;;;;;;;;;;8.43;97.41;96580.56;5057927;28;20472;-78
2022/09/18 01:14:33;;;;;;;;;;;;;;;8.42;97.26;96573.72;5075161;28;20423;-79
2022/09/18 01:17:23;;;;;;;;;;;;;;;8.42;97.81;96578.94;5075430;28;20332;-78
2022/09/18 01:20:08;;;;;;;;;;;;;;;8.41;97.54;96582.56;5049857;28;20338;-78
2022/09/18 01:22:57;;;;;;;;;;;;;;;8.40;98.11;96578.31;5075538;28;19958;-78
2022/09/18 01:25:37;;;;;;;;;;;;;;;8.40;97.55;96578.31;5037228;28;19955;-78
2022/09/18 01:28:09;;;;;;;;;;;;;;;8.40;97.92;96575.69;5075549;28;19953;-78
2022/09/18 01:30:38;;;;;;;;;;;;;;;8.41;98.55;96580.75;5074789;28;19978;-78
2022/09/18 01:33:06;;;;;;;;;;;;;;;8.42;98.13;96581.56;5074823;28;20321;-78
2022/09/18 01:35:38;;;;;;;;;;;;;;;8.44;98.10;96582.16;5074429;28;20067;-78
2022/09/18 01:38:10;;;;;;;;;;;;;;;8.44;98.26;96582.16;5074852;28;19976;-78
2022/09/18 01:40:46;;;;;;;;;;;;;;;8.44;98.23;96575.16;5074239;28;20309;-79
2022/09/18 01:43:13;;;;;;;;;;;;;;;8.44;97.72;96580.38;5074674;28;19959;-78
2022/09/18 01:45:47;;;;;;;;;;;;;;;8.45;97.98;96576.75;5074823;28;19950;-78
2022/09/18 01:48:18;;;;;;;;;;;;;;;8.45;98.13;96573.34;5074477;28;19958;-78
2022/09/18 01:50:48;;;;;;;;;;;;;;;8.44;96.64;96574.31;5074648;28;19972;-78
2022/09/18 01:53:23;;;;;;;;;;;;;;;8.41;97.64;96567.69;5074474;28;19962;-78
2022/09/18 01:55:53;;;;;;;;;;;;;;;8.38;98.40;96564.63;5074637;28;19957;-78
2022/09/18 01:58:21;;;;;;;;;;;;;;;8.35;97.89;96573.69;5074476;28;20316;-78
2022/09/18 02:00:50;;;;;;;;;;;;;;;8.36;98.66;96564.03;5056609;28;20346;-78
2022/09/18 02:03:21;;;;;;;;;;;;;;;8.33;97.46;96568.66;5074293;28;20338;-78
2022/09/18 02:05:51;;;;;;;;;;;;;;;8.31;98.95;96564.63;5074319;28;19954;-78
2022/09/18 02:08:40;;;;;;;;;;;;;;;8.29;98.29;96566.66;5074090;28;19950;-78
2022/09/18 02:11:08;;;;;;;;;;;;;;;8.29;97.87;96566.66;5074201;28;19960;-78
2022/09/18 02:13:36;;;;;;;;;;;;;;;8.30;98.46;96568.28;5056987;28;19996;-78
2022/09/18 02:16:06;;;;;;;;;;;;;;;8.30;99.83;96563.84;5056283;28;20355;-78
2022/09/18 02:18:36;;;;;;;;;;;;;;;8.28;98.87;96563.25;5074484;28;19976;-78
2022/09/18 02:21:05;;;;;;;;;;;;;;;8.29;98.61;96564.88;5074159;28;19970;-77
2022/09/18 02:23:32;;;;;;;;;;;;;;;8.27;100.00;96560.81;5074100;28;19951;-77
2022/09/18 02:26:03;;;;;;;;;;;;;;;8.23;99.55;96557.81;5074542;28;19953;-77
2022/09/18 02:28:30;;;;;;;;;;;;;;;8.22;100.00;96561.44;5074129;28;19947;-76
2022/09/18 02:30:57;;;;;;;;;;;;;;;8.21;99.79;96565.06;5055829;28;19964;-76
2022/09/18 02:33:30;;;;;;;;;;;;;;;8.19;100.00;96564.44;5073891;28;20397;-77
2022/09/18 02:35:59;;;;;;;;;;;;;;;8.19;100.00;96569.66;5074057;28;19945;-76
2022/09/18 02:38:31;;;;;;;;;;;;;;;8.17;100.00;96563.00;5073816;28;19949;-77
2022/09/18 02:41:03;;;;;;;;;;;;;;;8.19;100.00;96567.06;5073658;28;20412;-77
2022/09/18 02:43:42;;;;;;;;;;;;;;;8.22;100.00;96563.25;5073861;28;20335;-77
2022/09/18 02:46:30;;;;;;;;;;;;;;;8.22;100.00;96565.84;5074324;28;20335;-77
2022/09/18 02:49:05;;;;;;;;;;;;;;;8.20;100.00;96563.44;5059380;28;19965;-77
2022/09/18 02:51:34;;;;;;;;;;;;;;;8.19;100.00;96564.44;5071823;28;19959;-77
2022/09/18 02:54:06;;;;;;;;;;;;;;;8.18;100.00;96565.44;5073674;28;19957;-77
2022/09/18 02:56:31;;;;;;;;;;;;;;;8.17;100.00;96563.00;5073337;28;19947;-77
2022/09/18 02:59:18;;;;;;;;;;;;;;;8.18;100.00;96565.44;5073894;28;19955;-77
2022/09/18 03:01:44;;;;;;;;;;;;;;;8.22;100.00;96555.41;5032408;28;19947;-77
2022/09/18 03:04:11;;;;;;;;;;;;;;;8.24;100.00;96569.06;5073686;28;19953;-77
2022/09/18 03:06:37;;;;;;;;;;;;;;;8.25;100.00;96560.22;5073761;28;19954;-77
2022/09/18 03:09:03;;;;;;;;;;;;;;;8.26;100.00;96561.84;5073339;28;19965;-77
2022/09/18 03:11:29;;;;;;;;;;;;;;;8.27;100.00;96561.66;5056028;28;19960;-77
2022/09/18 03:13:55;;;;;;;;;;;;;;;8.30;100.00;96561.22;5073279;28;19962;-77
2022/09/18 03:16:21;;;;;;;;;;;;;;;8.29;100.00;96554.41;5073944;28;19959;-77
2022/09/18 03:18:47;;;;;;;;;;;;;;;8.29;100.00;96554.41;5073660;28;19976;-77
2022/09/18 03:21:13;;;;;;;;;;;;;;;8.29;100.00;96562.25;5055435;28;19959;-77
2022/09/18 03:23:38;;;;;;;;;;;;;;;8.30;100.00;96557.81;5073795;28;19960;-77
2022/09/18 03:26:04;;;;;;;;;;;;;;;8.29;100.00;96549.19;5073214;28;19955;-77
2022/09/18 03:28:30;;;;;;;;;;;;;;;8.29;100.00;96557.03;5073348;28;20332;-77
2022/09/18 03:30:56;;;;;;;;;;;;;;;8.30;100.00;96550.78;5073108;28;19970;-77
2022/09/18 03:33:22;;;;;;;;;;;;;;;8.32;100.00;96553.19;5073295;28;20376;-77
2022/09/18 03:35:48;;;;;;;;;;;;;;;8.32;100.00;96542.75;5072464;28;20049;-77
2022/09/18 03:38:14;;;;;;;;;;;;;;;8.34;100.00;96541.53;5073167;28;20032;-78
2022/09/18 03:40:43;;;;;;;;;;;;;;;8.35;100.00;96539.72;5073396;28;20414;-77
2022/09/18 03:43:10;;;;;;;;;;;;;;;8.34;100.00;96544.16;5073127;28;19957;-77
2022/09/18 03:45:35;;;;;;;;;;;;;;;8.36;100.00;96541.34;5073204;28;19964;-77
2022/09/18 03:48:02;;;;;;;;;;;;;;;8.39;100.00;96540.94;5072893;28;20016;-77
2022/09/18 03:50:28;;;;;;;;;;;;;;;8.40;100.00;96545.16;5073152;28;19975;-77
2022/09/18 03:52:54;;;;;;;;;;;;;;;8.43;100.00;96549.22;5073077;28;19959;-77
2022/09/18 03:55:21;;;;;;;;;;;;;;;8.45;100.00;96545.38;5072996;28;19968;-77
2022/09/18 03:57:49;;;;;;;;;;;;;;;8.45;100.00;96545.38;5073434;28;20366;-77
2022/09/18 04:00:15;;;;;;;;;;;;;;;8.46;100.00;96552.22;5073175;28;20305;-78
2022/09/18 04:02:42;;;;;;;;;;;;;;;8.49;100.00;96554.44;5074339;28;20334;-77
2022/09/18 04:05:08;;;;;;;;;;;;;;;8.51;100.00;96562.06;5076629;28;19940;-77
2022/09/18 04:07:34;;;;;;;;;;;;;;;8.54;100.00;96557.22;5076699;28;19956;-77
2022/09/18 04:09:59;;;;;;;;;;;;;;;8.57;100.00;96557.84;5076790;28;20049;-77
2022/09/18 04:12:26;;;;;;;;;;;;;;;8.58;100.00;96551.63;5076691;28;19996;-77
2022/09/18 04:14:52;;;;;;;;;;;;;;;8.59;100.00;96561.88;5062463;28;19956;-77
2022/09/18 04:17:18;;;;;;;;;;;;;;;8.59;100.00;96567.09;5076071;28;19973;-77
2022/09/18 04:19:44;;;;;;;;;;;;;;;8.58;100.00;96568.09;5076498;28;20097;-77
2022/09/18 04:22:09;;;;;;;;;;;;;;;8.60;100.00;96570.50;5076626;28;20106;-77
2022/09/18 04:24:36;;;;;;;;;;;;;;;8.62;100.00;96571.91;5076416;28;20029;-77
2022/09/18 04:27:01;;;;;;;;;;;;;;;8.61;100.00;96570.31;5076120;28;19954;-78
2022/09/18 04:29:27;;;;;;;;;;;;;;;8.61;100.00;96572.94;5076383;28;19973;-77
2022/09/18 04:31:53;;;;;;;;;;;;;;;8.61;100.00;96577.34;5076443;28;19954;-77
2022/09/18 04:34:19;;;;;;;;;;;;;;;8.61;100.00;96587.78;5074977;28;20038;-77
2022/09/18 04:36:45;;;;;;;;;;;;;;;8.58;100.00;96575.13;5076059;28;20003;-77
2022/09/18 04:39:11;;;;;;;;;;;;;;;8.57;100.00;96576.94;5075837;28;19955;-77
2022/09/18 04:41:37;;;;;;;;;;;;;;;8.56;100.00;96569.31;5076117;28;19959;-77
2022/09/18 04:44:03;;;;;;;;;;;;;;;8.52;100.00;96572.34;5075936;28;19954;-78
2022/09/18 04:46:29;;;;;;;;;;;;;;;8.49;100.00;96574.53;5075927;28;19957;-78
2022/09/18 04:48:55;;;;;;;;;;;;;;;8.48;100.00;96570.31;5057842;28;20375;-77
2022/09/18 04:51:21;;;;;;;;;;;;;;;8.47;100.00;96561.66;5058122;28;20022;-78
2022/09/18 04:53:47;;;;;;;;;;;;;;;8.49;100.00;96566.69;5075940;28;19995;-78
2022/09/18 04:56:13;;;;;;;;;;;;;;;8.49;100.00;96564.88;5075712;28;19954;-78
2022/09/18 04:58:39;;;;;;;;;;;;;;;8.51;100.00;96567.31;5057553;28;20045;-78
2022/09/18 05:01:04;;;;;;;;;;;;;;;8.51;100.00;96557.66;5075594;28;19984;-77
2022/09/18 05:03:31;;;;;;;;;;;;;;;8.50;100.00;96558.66;5075256;28;19950;-78
2022/09/18 05:05:56;;;;;;;;;;;;;;;8.49;100.00;96551.81;5075530;28;19960;-78
2022/09/18 05:08:22;;;;;;;;;;;;;;;8.48;100.00;96559.84;5075604;28;20398;-77
2022/09/18 05:10:48;;;;;;;;;;;;;;;8.45;100.00;96555.03;5075301;28;19969;-78
2022/09/18 05:13:14;;;;;;;;;;;;;;;8.44;100.00;96554.25;5074680;28;19954;-77
2022/09/18 05:15:40;;;;;;;;;;;;;;;8.42;100.00;96553.63;5074638;28;19960;-78
2022/09/18 05:18:06;;;;;;;;;;;;;;;8.40;100.00;96558.22;5074941;28;19982;-77
2022/09/18 05:20:33;;;;;;;;;;;;;;;8.41;100.00;96562.47;5075420;28;19955;-78
2022/09/18 05:22:59;;;;;;;;;;;;;;;8.41;100.00;96572.13;5075009;28;19950;-78
2022/09/18 05:25:27;;;;;;;;;;;;;;;8.39;100.00;96576.72;5075453;28;19960;-78
2022/09/18 05:28:00;;;;;;;;;;;;;;;8.36;100.00;96571.88;5075417;28;19964;-78
2022/09/18 05:30:26;;;;;;;;;;;;;;;8.37;100.00;96579.53;5075355;28;19944;-77
2022/09/18 05:33:00;;;;;;;;;;;;;;;8.37;100.00;96587.34;5074870;28;19953;-78
2022/09/18 05:35:27;;;;;;;;;;;;;;;8.41;100.00;96591.22;5060218;28;19947;-78
2022/09/18 05:37:54;;;;;;;;;;;;;;;8.44;100.00;96579.56;5075075;28;20333;-78
2022/09/18 05:40:22;;;;;;;;;;;;;;;8.46;100.00;96586.22;5075424;28;20315;-78
2022/09/18 05:42:48;;;;;;;;;;;;;;;8.49;100.00;96591.03;5074665;28;19959;-78
2022/09/18 05:45:14;;;;;;;;;;;;;;;8.51;100.00;96596.06;5074717;28;20326;-78
2022/09/18 05:47:40;;;;;;;;;;;;;;;8.52;100.00;96597.66;5074496;28;20416;-78
2022/09/18 05:50:07;;;;;;;;;;;;;;;8.52;100.00;96597.66;5074428;28;19966;-78
2022/09/18 05:52:32;;;;;;;;;;;;;;;8.52;100.00;96595.03;5074597;28;19963;-78
2022/09/18 05:54:58;;;;;;;;;;;;;;;8.53;100.00;96592.22;5074363;28;19954;-78
2022/09/18 05:57:24;;;;;;;;;;;;;;;8.57;100.00;96600.47;5056768;28;20363;-77
2022/09/18 05:59:50;;;;;;;;;;;;;;;8.60;100.00;96597.44;5074751;28;20453;-77
2022/09/18 06:02:16;;;;;;;;;;;;;;;8.63;100.00;96604.06;5074297;28;19955;-77
2022/09/18 06:04:42;;;;;;;;;;;;;;;8.64;100.00;96601.28;5074470;28;19952;-77
2022/09/18 06:07:08;;;;;;;;;;;;;;;8.64;100.00;96597.88;5074462;28;19947;-78
2022/09/18 06:09:34;;;;;;;;;;;;;;;8.64;100.00;96597.88;5074792;28;19963;-77
2022/09/18 06:12:00;;;;;;;;;;;;;;;8.66;100.00;96596.66;5056248;28;19952;-77
2022/09/18 06:14:26;;;;;;;;;;;;;;;8.72;100.00;96595.03;5074352;28;19952;-78
2022/09/18 06:16:52;;;;;;;;;;;;;;;8.77;100.00;96591.81;5074223;28;19961;-77
2022/09/18 06:19:18;;;;;;;;;;;;;;;8.82;100.00;96589.38;5073338;28;19967;-77
2022/09/18 06:21:44;;;;;;;;;;;;;;;8.86;100.00;96586.19;5074228;28;19953;-77
2022/09/18 06:24:10;;;;;;;;;;;;;;;8.87;100.00;96590.41;5074026;28;19964;-77
2022/09/18 06:26:36;;;;;;;;;;;;;;;8.89;100.00;96598.03;5074136;28;20059;-77
2022/09/18 06:29:02;;;;;;;;;;;;;;;8.89;100.00;96583.16;5074557;28;19953;-77
2022/09/18 06:31:27;;;;;;;;;;;;;;;8.94;100.00;96591.22;5073849;28;20057;-77
2022/09/18 06:33:53;;;;;;;;;;;;;;;8.97;100.00;96600.44;5074047;28;19956;-77
2022/09/18 06:36:19;;;;;;;;;;;;;;;8.96;100.00;96603.25;5056159;28;19954;-77
2022/09/18 06:38:48;;;;;;;;;;;;;;;8.97;100.00;96602.28;5073849;28;19954;-77
2022/09/18 06:41:14;;;;;;;;;;;;;;;8.97;100.00;96597.84;5055829;28;19957;-77
2022/09/18 06:43:40;;;;;;;;;;;;;;;8.97;100.00;96597.84;5073641;28;19961;-77
2022/09/18 06:46:06;;;;;;;;;;;;;;;9.01;100.00;96598.22;5056245;28;19986;-77
2022/09/18 06:48:32;;;;;;;;;;;;;;;9.03;100.00;96598.81;5073660;28;19964;-77
2022/09/18 06:50:58;;;;;;;;;;;;;;;9.03;100.00;96604.03;5073555;28;19965;-77
2022/09/18 06:53:27;;;;;;;;;;;;;;;9.06;100.00;96608.88;5073887;28;19953;-77
2022/09/18 06:55:57;;;;;;;;;;;;;;;9.10;100.00;96610.09;5073517;28;19954;-77
2022/09/18 06:58:23;;;;;;;;;;;;;;;9.13;100.00;96607.06;5064215;28;19953;-77
2022/09/18 07:00:49;;;;;;;;;;;;;;;9.16;100.00;96617.13;5073600;28;19950;-77
2022/09/18 07:03:15;;;;;;;;;;;;;;;9.18;100.00;96609.88;5073996;28;19955;-77
2022/09/18 07:05:45;;;;;;;;;;;;;;;9.21;100.00;96616.50;5073720;28;19966;-77
2022/09/18 07:08:11;;;;;;;;;;;;;;;9.23;100.00;96609.25;5074092;28;20383;-77
2022/09/18 07:10:37;;;;;;;;;;;;;;;9.23;100.00;96617.09;5073716;28;19968;-77
2022/09/18 07:13:04;;;;;;;;;;;;;;;9.22;100.00;96613.69;5073639;28;20003;-77
2022/09/18 07:15:30;;;;;;;;;;;;;;;9.24;100.00;96618.69;5074175;28;19957;-77
2022/09/18 07:17:59;;;;;;;;;;;;;;;9.23;100.00;96610.06;5073347;28;19976;-77
2022/09/18 07:20:26;;;;;;;;;;;;;;;9.22;99.26;96613.69;5072783;28;19964;-77
2022/09/18 07:22:53;;;;;;;;;;;;;;;9.21;99.64;96614.69;5073512;28;19954;-77
2022/09/18 07:25:19;;;;;;;;;;;;;;;9.25;100.00;96615.88;5073550;28;19953;-77
2022/09/18 07:27:45;;;;;;;;;;;;;;;9.28;100.00;96623.34;5055790;28;19976;-77
2022/09/18 07:30:11;;;;;;;;;;;;;;;9.30;100.00;96616.09;5073088;28;20479;-77
2022/09/18 07:32:36;;;;;;;;;;;;;;;9.26;100.00;96614.88;5073767;28;19955;-78
2022/09/18 07:35:03;;;;;;;;;;;;;;;9.22;100.00;96621.53;5073541;28;19967;-77
2022/09/18 07:37:29;;;;;;;;;;;;;;;9.20;100.00;96625.34;5074619;28;19950;-77
2022/09/18 07:39:55;;;;;;;;;;;;;;;9.18;99.72;96630.81;5077373;28;20440;-77
2022/09/18 07:42:21;;;;;;;;;;;;;;;9.18;100.00;96635.25;5059311;28;19959;-78
2022/09/18 07:44:46;;;;;;;;;;;;;;;9.15;100.00;96628.59;5077371;28;19947;-77
2022/09/18 07:47:13;;;;;;;;;;;;;;;9.13;100.00;96641.88;5077298;28;19953;-78
2022/09/18 07:49:39;;;;;;;;;;;;;;;9.13;100.00;96644.50;5050918;28;19955;-77
2022/09/18 07:52:05;;;;;;;;;;;;;;;9.12;100.00;96648.13;5059355;28;20413;-77
2022/09/18 07:54:31;;;;;;;;;;;;;;;9.13;100.00;96656.75;5077159;28;19988;-77
2022/09/18 07:56:57;;;;;;;;;;;;;;;9.12;100.00;96647.31;5076820;28;20387;-78
2022/09/18 07:59:23;;;;;;;;;;;;;;;9.10;100.00;96657.97;5076657;28;19955;-77
2022/09/18 08:01:50;;;;;;;;;;;;;;;9.09;100.00;96653.78;5059529;28;20045;-78
2022/09/18 08:04:16;;;;;;;;;;;;;;;9.09;100.00;96648.53;5076547;28;20418;-77
2022/09/18 08:06:42;;;;;;;;;;;;;;;9.13;100.00;96652.34;5076935;28;19960;-78
2022/09/18 08:09:07;;;;;;;;;;;;;;;9.16;100.00;96651.13;5076829;28;20303;-77
2022/09/18 08:11:33;;;;;;;;;;;;;;;9.18;100.00;96650.94;5076258;28;20060;-78
2022/09/18 08:13:59;;;;;;;;;;;;;;;9.25;100.00;96656.97;5076460;28;19945;-78
2022/09/18 08:16:25;;;;;;;;;;;;;;;9.30;100.00;96649.28;5076434;28;19957;-78
2022/09/18 08:18:51;;;;;;;;;;;;;;;9.35;100.00;96637.22;5076740;28;19977;-78
2022/09/18 08:21:17;;;;;;;;;;;;;;;9.43;100.00;96651.91;5076675;28;19955;-78
2022/09/18 08:23:43;;;;;;;;;;;;;;;9.53;100.00;96648.81;5076276;28;19948;-78
2022/09/18 08:26:09;;;;;;;;;;;;;;;9.60;100.00;96652.25;5076622;28;19958;-78
2022/09/18 08:28:35;;;;;;;;;;;;;;;9.67;100.00;96653.03;5076122;28;19955;-78
2022/09/18 08:31:01;;;;;;;;;;;;;;;9.73;100.00;96664.50;5077034;28;20414;-78
2022/09/18 08:33:27;;;;;;;;;;;;;;;9.74;100.00;96658.22;5076312;28;19998;-78
2022/09/18 08:35:54;;;;;;;;;;;;;;;9.78;99.33;96669.91;5076679;28;19962;-78
2022/09/18 08:38:20;;;;;;;;;;;;;;;9.78;98.07;96664.66;5076156;28;19956;-78
2022/09/18 08:40:49;;;;;;;;;;;;;;;9.82;99.23;96665.06;5076447;28;20468;-78
2022/09/18 08:43:24;;;;;;;;;;;;;;;9.85;98.21;96662.84;5076302;28;19946;-78
2022/09/18 08:45:57;;;;;;;;;;;;;;;9.86;98.18;96661.00;5061112;28;20321;-78
2022/09/18 08:48:26;;;;;;;;;;;;;;;9.89;98.11;96656.19;5076266;28;19974;-78
2022/09/18 08:50:55;;;;;;;;;;;;;;;9.97;96.86;96660.34;5075577;28;19966;-78
2022/09/18 08:53:27;;;;;;;;;;;;;;;10.02;96.64;96654.50;5075929;28;19962;-79
2022/09/18 08:55:54;;;;;;;;;;;;;;;10.02;97.56;96662.38;5075524;28;19954;-78
2022/09/18 08:58:25;;;;;;;;;;;;;;;10.02;97.79;96663.16;5075592;28;19953;-79
2022/09/18 09:00:53;;;;;;;;;;;;;;;10.04;96.46;96666.38;5065238;28;19959;-78
2022/09/18 09:03:22;;;;;;;;;;;;;;;10.02;96.23;96667.63;5075495;28;19945;-79
2022/09/18 09:05:50;;;;;;;;;;;;;;;10.03;96.99;96671.81;5075477;28;19957;-78
2022/09/18 09:08:27;;;;;;;;;;;;;;;10.00;95.93;96667.03;5075699;28;20344;-79
2022/09/18 09:10:54;;;;;;;;;;;;;;;10.00;97.60;96664.41;5075651;28;19969;-79
2022/09/18 09:13:26;;;;;;;;;;;;;;;10.00;95.99;96672.25;5075697;28;19957;-79
2022/09/18 09:15:58;;;;;;;;;;;;;;;10.02;95.83;96675.47;5075130;28;20008;-79
2022/09/18 09:18:29;;;;;;;;;;;;;;;10.06;97.00;96677.47;5075582;28;19978;-79
2022/09/18 09:20:56;;;;;;;;;;;;;;;10.15;96.86;96670.97;5075958;28;19970;-79
2022/09/18 09:23:34;;;;;;;;;;;;;;;10.25;97.65;96674.97;5075068;28;20012;-79
2022/09/18 09:26:03;;;;;;;;;;;;;;;10.32;93.81;96660.81;5075310;28;19960;-79
2022/09/18 09:28:36;;;;;;;;;;;;;;;10.44;95.76;96665.41;5075641;28;19961;-79
2022/09/18 09:31:05;;;;;;;;;;;;;;;10.56;95.35;96661.06;5075122;28;19969;-79
2022/09/18 09:33:55;;;;;;;;;;;;;;;10.69;95.24;96665.44;5074838;28;20418;-79
2022/09/18 09:36:23;;;;;;;;;;;;;;;10.83;94.42;96663.50;5064301;28;19961;-79
2022/09/18 09:38:52;;;;;;;;;;;;;;;10.94;92.76;96658.38;5074857;28;19956;-79
2022/09/18 09:41:18;;;;;;;;;;;;;;;11.04;92.65;96660.50;5074807;28;19992;-79
2022/09/18 09:43:53;;;;;;;;;;;;;;;11.10;91.37;96657.00;5074655;28;20032;-79
2022/09/18 09:46:33;;;;;;;;;;;;;;;11.16;90.18;96652.72;5075097;28;19965;-79
2022/09/18 09:49:12;;;;;;;;;;;;;;;11.28;91.21;96658.88;5075331;28;19956;-79
2022/09/18 09:51:51;;;;;;;;;;;;;;;11.39;89.26;96646.84;5074513;28;20441;-79
2022/09/18 09:54:17;;;;;;;;;;;;;;;11.41;87.91;96657.16;5056878;28;19966;-79
2022/09/18 09:56:43;;;;;;;;;;;;;;;11.37;85.97;96641.03;5074829;28;19959;-80
2022/09/18 09:59:27;;;;;;;;;;;;;;;11.30;86.93;96637.69;5074336;28;20532;-79
2022/09/18 10:02:05;;;;;;;;;;;;;;;11.20;87.58;96647.88;5074202;28;20312;-79
2022/09/18 10:04:34;;;;;;;;;;;;;;;11.15;89.00;96640.66;5074263;28;19967;-80
2022/09/18 10:07:21;;;;;;;;;;;;;;;11.13;87.63;96645.31;5056545;28;19964;-80
2022/09/18 10:10:04;;;;;;;;;;;;;;;11.17;87.92;96644.66;5074699;28;20320;-80
2022/09/18 10:12:35;;;;;;;;;;;;;;;11.27;87.83;96640.72;5074296;28;19960;-80
2022/09/18 10:15:17;;;;;;;;;;;;;;;11.36;86.55;96634.97;5074652;28;20430;-80
2022/09/18 10:17:44;;;;;;;;;;;;;;;11.49;85.78;96620.09;5056112;28;19980;-80
2022/09/18 10:20:15;;;;;;;;;;;;;;;11.72;85.71;96627.31;5074056;28;19964;-80
2022/09/18 10:22:41;;;;;;;;;;;;;;;11.93;86.25;96632.13;5074160;28;19953;-80
2022/09/18 10:25:15;;;;;;;;;;;;;;;12.11;83.59;96619.97;5074168;28;19962;-80
2022/09/18 10:27:41;;;;;;;;;;;;;;;12.27;81.71;96615.91;5073908;28;19956;-79
2022/09/18 10:30:11;;;;;;;;;;;;;;;12.31;79.19;96601.31;5056498;28;19961;-80
2022/09/18 10:32:40;;;;;;;;;;;;;;;12.41;81.15;96617.34;5073699;28;19966;-80
2022/09/18 10:35:18;;;;;;;;;;;;;;;12.45;79.65;96610.59;5073740;28;19959;-80
2022/09/18 10:37:44;;;;;;;;;;;;;;;12.41;77.47;96598.94;5055943;28;19956;-80
2022/09/18 10:40:27;;;;;;;;;;;;;;;12.36;79.44;96617.19;5073736;28;19961;-80
2022/09/18 10:42:54;;;;;;;;;;;;;;;12.38;79.56;96615.13;5056224;28;19958;-80
2022/09/18 10:45:25;;;;;;;;;;;;;;;12.30;78.21;96603.09;5073583;28;20027;-79
2022/09/18 10:48:02;;;;;;;;;;;;;;;12.22;77.78;96600.81;5074192;28;19954;-79
2022/09/18 10:50:28;;;;;;;;;;;;;;;12.14;77.10;96594.03;5073765;28;19949;-80
2022/09/18 10:52:54;;;;;;;;;;;;;;;12.13;79.52;96616.09;5073909;28;19954;-79
2022/09/18 10:55:29;;;;;;;;;;;;;;;12.16;77.58;96588.56;5073871;28;20517;-80
2022/09/18 10:57:55;;;;;;;;;;;;;;;12.20;79.50;96595.00;5073535;28;19951;-79
2022/09/18 11:00:24;;;;;;;;;;;;;;;12.28;80.00;96601.72;5055520;28;20421;-79
2022/09/18 11:02:54;;;;;;;;;;;;;;;12.27;76.51;96579.09;5073732;28;19951;-80
2022/09/18 11:05:22;;;;;;;;;;;;;;;12.35;78.00;96584.84;5074181;28;19954;-80
2022/09/18 11:07:49;;;;;;;;;;;;;;;12.54;75.06;96547.94;5073426;28;19959;-80
2022/09/18 11:10:20;;;;;;;;;;;;;;;12.71;77.82;96580.44;5073353;28;19955;-80
2022/09/18 11:12:47;;;;;;;;;;;;;;;12.92;78.29;96578.28;5076250;28;19952;-80
2022/09/18 11:15:15;;;;;;;;;;;;;;;13.00;76.29;96560.28;5060049;28;19954;-79
2022/09/18 11:17:46;;;;;;;;;;;;;;;13.09;75.35;96550.22;5077772;28;19981;-80
2022/09/18 11:20:22;;;;;;;;;;;;;;;13.27;74.63;96535.28;5077720;28;19953;-80
2022/09/18 11:22:48;;;;;;;;;;;;;;;13.42;74.03;96540.91;5078003;28;19959;-80
2022/09/18 11:25:14;;;;;;;;;;;;;;;13.60;71.79;96517.00;5077424;28;19966;-80
2022/09/18 11:27:50;;;;;;;;;;;;;;;13.60;71.66;96522.28;5077926;28;19963;-80
2022/09/18 11:30:27;;;;;;;;;;;;;;;13.40;71.18;96520.06;5077527;28;20326;-79
2022/09/18 11:33:14;;;;;;;;;;;;;;;13.14;70.33;96510.00;5077410;28;19956;-79
2022/09/18 11:35:44;;;;;;;;;;;;;;;13.11;73.63;96544.72;5070300;28;19957;-80
2022/09/18 11:38:13;;;;;;;;;;;;;;;13.03;71.27;96529.28;5076677;28;19958;-80
2022/09/18 11:40:43;;;;;;;;;;;;;;;12.91;69.78;96502.94;5069165;28;19962;-79
2022/09/18 11:43:19;;;;;;;;;;;;;;;12.87;71.50;96528.97;5076897;28;19953;-79
2022/09/18 11:45:45;;;;;;;;;;;;;;;12.74;69.95;96506.28;5058875;28;19948;-79
2022/09/18 11:48:11;;;;;;;;;;;;;;;12.69;71.33;96516.72;5077262;28;20014;-80
2022/09/18 11:50:37;;;;;;;;;;;;;;;12.86;72.01;96514.19;5077012;28;19960;-79
2022/09/18 11:53:09;;;;;;;;;;;;;;;13.20;73.13;96511.72;5076912;28;19954;-79
2022/09/18 11:55:35;;;;;;;;;;;;;;;13.53;71.50;96495.28;5077055;28;20416;-79
2022/09/18 11:58:04;;;;;;;;;;;;;;;13.79;69.85;96475.44;5076850;28;19947;-80
2022/09/18 12:00:36;;;;;;;;;;;;;;;13.98;68.66;96465.50;5076358;28;19952;-79
2022/09/18 12:03:20;;;;;;;;;;;;;;;14.16;66.43;96443.34;5076561;28;19952;-79
2022/09/18 12:05:50;;;;;;;;;;;;;;;14.36;67.11;96452.63;5076564;28;19958;-79
2022/09/18 12:08:20;;;;;;;;;;;;;;;14.36;67.46;96469.25;5076454;28;19953;-79
2022/09/18 12:11:05;;;;;;;;;;;;;;;14.23;65.18;96439.75;5076761;28;19963;-79
2022/09/18 12:13:49;;;;;;;;;;;;;;;14.21;62.87;96413.63;5077376;28;20025;-79
2022/09/18 12:16:34;;;;;;;;;;;;;;;14.13;62.60;96400.84;5076525;28;19955;-79
2022/09/18 12:19:03;;;;;;;;;;;;;;;14.03;63.82;96417.31;5075298;28;20351;-79
2022/09/18 12:21:35;;;;;;;;;;;;;;;13.91;63.62;96413.97;5076598;28;19961;-79
2022/09/18 12:24:01;;;;;;;;;;;;;;;13.81;67.44;96464.66;5075838;28;19964;-79
2022/09/18 12:26:33;;;;;;;;;;;;;;;13.73;67.51;96455.34;5076917;28;20046;-79
2022/09/18 12:29:12;;;;;;;;;;;;;;;13.62;65.83;96450.09;5076484;28;20056;-79
2022/09/18 12:31:44;;;;;;;;;;;;;;;13.55;66.44;96445.78;5061741;28;20422;-79
2022/09/18 12:34:12;;;;;;;;;;;;;;;13.47;64.35;96440.09;5075696;28;19946;-79
2022/09/18 12:36:38;;;;;;;;;;;;;;;13.40;64.95;96438.41;5076399;28;19951;-79
2022/09/18 12:39:08;;;;;;;;;;;;;;;13.34;64.91;96441.19;5075632;28;20327;-79
2022/09/18 12:42:00;;;;;;;;;;;;;;;13.25;63.01;96429.38;5074949;28;19958;-79
2022/09/18 12:44:25;;;;;;;;;;;;;;;13.23;61.11;96411.19;5071943;28;19953;-79
2022/09/18 12:47:07;;;;;;;;;;;;;;;13.25;64.26;96437.28;5076112;28;20493;-79
2022/09/18 12:49:45;;;;;;;;;;;;;;;13.28;63.88;96426.28;5075368;28;19961;-79
2022/09/18 12:52:23;;;;;;;;;;;;;;;13.37;63.87;96430.97;5076198;28;19966;-79
2022/09/18 12:55:24;;;;;;;;;;;;;;;13.44;63.12;96430.84;5075791;28;19953;-79
2022/09/18 12:58:13;;;;;;;;;;;;;;;13.45;63.18;96421.88;5013743;28;19966;-79